Time;durP1;ratioP1;P1;durP2;ratioP2;P2;SDS_P1;SDS_P2;PMS_P1;PMS_P2;Temp;Humidity;BMP_temperature;BMP_pressure;BME280_temperature;BME280_humidity;BME280_pressure;Samples;Min_cycle;Max_cycle;Signal;HPM_P1;HPM_P2
2023/03/31 00:00:52;;;;;;;4.67;1.77;;;10.50;99.90;;;;;;4975849;28;20172;-41
2023/03/31 00:03:21;;;;;;;5.97;2.20;;;10.40;99.90;;;;;;4992027;28;20183;-42
2023/03/31 00:05:57;;;;;;;4.87;1.90;;;10.40;99.90;;;;;;4992098;28;20206;-42
2023/03/31 00:08:24;;;;;;;4.37;1.90;;;10.30;99.90;;;;;;4993340;28;20247;-42
2023/03/31 00:10:50;;;;;;;4.77;2.23;;;10.10;99.90;;;;;;4991592;28;20197;-41
2023/03/31 00:13:15;;;;;;;5.40;2.10;;;10.00;99.90;;;;;;4993101;28;20184;-42
2023/03/31 00:15:41;;;;;;;5.37;1.90;;;10.00;99.90;;;;;;4992758;28;20185;-41
2023/03/31 00:18:07;;;;;;;4.93;1.77;;;10.00;99.90;;;;;;4975779;28;20191;-42
2023/03/31 00:20:36;;;;;;;5.10;2.00;;;10.10;99.90;;;;;;4993022;28;20188;-42
2023/03/31 00:23:05;;;;;;;5.13;1.70;;;10.20;99.90;;;;;;4992083;28;20216;-42
2023/03/31 00:25:31;;;;;;;6.67;2.30;;;10.20;99.90;;;;;;4975142;28;20203;-42
2023/03/31 00:27:56;;;;;;;4.40;1.70;;;10.30;99.90;;;;;;4974981;28;20212;-42
2023/03/31 00:30:22;;;;;;;3.47;2.10;;;10.30;99.90;;;;;;4992796;28;20184;-42
2023/03/31 00:32:48;;;;;;;3.60;1.97;;;10.30;99.90;;;;;;4991796;28;20192;-40
2023/03/31 00:35:14;;;;;;;5.10;2.00;;;10.30;99.90;;;;;;4992352;28;20254;-41
2023/03/31 00:37:42;;;;;;;5.37;1.80;;;10.30;99.90;;;;;;4992759;28;20185;-42
2023/03/31 00:40:08;;;;;;;5.93;2.27;;;10.30;99.90;;;;;;4990330;28;20207;-42
2023/03/31 00:42:41;;;;;;;4.13;1.97;;;10.30;99.90;;;;;;4957301;28;20224;-42
2023/03/31 00:45:06;;;;;;;4.60;2.03;;;10.30;99.90;;;;;;4975213;28;20184;-42
2023/03/31 00:47:34;;;;;;;8.07;2.50;;;10.30;99.90;;;;;;4992626;28;20199;-41
2023/03/31 00:49:59;;;;;;;4.00;2.20;;;10.30;99.90;;;;;;4990834;28;20211;-42
2023/03/31 00:52:34;;;;;;;5.60;2.20;;;10.30;99.90;;;;;;4992632;28;20626;-42
2023/03/31 00:55:08;;;;;;;5.37;2.10;;;10.40;99.90;;;;;;4971499;28;20191;-42
2023/03/31 00:57:38;;;;;;;4.77;2.00;;;10.30;99.90;;;;;;4983312;28;20271;-42
2023/03/31 01:00:13;;;;;;;5.27;2.03;;;10.40;99.90;;;;;;4991883;28;20205;-41
2023/03/31 01:02:40;;;;;;;6.10;2.23;;;10.40;99.90;;;;;;4974782;28;20183;-43
2023/03/31 01:05:08;;;;;;;3.83;1.80;;;10.40;99.90;;;;;;4974293;28;20254;-42
2023/03/31 01:07:38;;;;;;;4.23;1.97;;;10.40;99.90;;;;;;4989476;28;20289;-42
2023/03/31 01:10:05;;;;;;;2.47;1.70;;;10.40;99.90;;;;;;4975921;28;20820;-41
2023/03/31 01:12:35;;;;;;;3.80;2.10;;;10.40;99.90;;;;;;4974639;28;20187;-41
2023/03/31 01:15:03;;;;;;;7.27;2.43;;;10.40;99.90;;;;;;4974016;28;20172;-42
2023/03/31 01:17:30;;;;;;;4.73;1.73;;;10.40;99.90;;;;;;4992359;28;20195;-41
2023/03/31 01:20:18;;;;;;;4.77;2.13;;;10.40;99.90;;;;;;4974548;28;20258;-42
2023/03/31 01:22:53;;;;;;;4.97;2.07;;;10.30;99.90;;;;;;4974535;28;20180;-42
2023/03/31 01:25:28;;;;;;;5.90;2.13;;;10.30;99.90;;;;;;4991973;28;20188;-42
2023/03/31 01:27:57;;;;;;;6.03;2.07;;;10.30;99.90;;;;;;4974230;28;20207;-41
2023/03/31 01:30:44;;;;;;;8.43;2.50;;;10.30;99.90;;;;;;4974326;28;20296;-43
2023/03/31 01:33:39;;;;;;;7.17;2.03;;;10.30;99.90;;;;;;4971612;28;20181;-42
2023/03/31 01:36:23;;;;;;;7.13;2.57;;;10.30;99.90;;;;;;4974554;28;20203;-42
2023/03/31 01:39:10;;;;;;;6.70;2.60;;;10.20;99.90;;;;;;4991779;28;20206;-43
2023/03/31 01:42:00;;;;;;;7.20;2.50;;;10.20;99.90;;;;;;4983090;28;20176;-43
2023/03/31 01:44:35;;;;;;;7.80;2.50;;;10.30;99.90;;;;;;4991805;28;20181;-42
2023/03/31 01:47:21;;;;;;;5.33;2.23;;;10.40;99.90;;;;;;4974033;28;20207;-41
2023/03/31 01:49:59;;;;;;;7.33;2.43;;;10.60;99.90;;;;;;4974286;28;20207;-42
2023/03/31 01:52:57;;;;;;;4.90;2.10;;;10.80;99.90;;;;;;4991625;28;20199;-43
2023/03/31 01:55:35;;;;;;;8.73;2.80;;;10.90;99.90;;;;;;4989999;28;20184;-43
2023/03/31 01:58:04;;;;;;;6.63;2.80;;;10.90;99.90;;;;;;4974422;28;20180;-41
2023/03/31 02:00:38;;;;;;;5.83;2.90;;;11.00;99.90;;;;;;4973530;28;20179;-42
2023/03/31 02:03:13;;;;;;;8.13;2.97;;;10.90;99.90;;;;;;4991986;28;20234;-43
2023/03/31 02:05:55;;;;;;;9.67;2.63;;;10.90;99.90;;;;;;4991286;28;20184;-43
2023/03/31 02:08:30;;;;;;;5.00;2.17;;;10.90;99.90;;;;;;4973915;28;20214;-43
2023/03/31 04:26:55;;;;;;;9.63;3.43;;;8.80;99.90;;;;;;4994630;28;20363;-86
2023/03/31 04:29:25;;;;;;;7.23;3.60;;;8.80;99.90;;;;;;4977731;28;20183;-91
2023/03/31 04:31:57;;;;;;;7.43;3.60;;;8.80;99.90;;;;;;4972130;28;20179;-91
2023/03/31 04:34:25;;;;;;;6.80;3.97;;;8.90;99.90;;;;;;4958002;28;20642;-91
2023/03/31 04:36:55;;;;;;;7.57;4.27;;;8.90;99.90;;;;;;4958014;28;20232;-92
2023/03/31 04:39:29;;;;;;;4.90;3.80;;;8.90;99.90;;;;;;4965602;28;20250;-91
2023/03/31 04:41:56;;;;;;;10.10;4.40;;;8.90;99.90;;;;;;4972268;28;20179;-91
2023/03/31 04:44:23;;;;;;;5.87;3.47;;;8.90;99.90;;;;;;4977028;28;20180;-91
2023/03/31 04:46:49;;;;;;;6.73;3.63;;;9.00;99.90;;;;;;4957898;28;20205;-91
2023/03/31 04:49:15;;;;;;;7.50;3.70;;;9.00;99.90;;;;;;4957994;28;20227;-91
2023/03/31 04:51:40;;;;;;;8.40;4.17;;;9.10;99.90;;;;;;4958895;28;20181;-91
2023/03/31 04:54:06;;;;;;;8.97;3.70;;;9.10;99.90;;;;;;4958400;28;20188;-92
2023/03/31 04:56:33;;;;;;;10.60;4.30;;;9.10;99.90;;;;;;4976755;28;20223;-91
2023/03/31 04:58:58;;;;;;;7.03;3.63;;;9.20;99.90;;;;;;4962850;28;20184;-91
2023/03/31 05:01:24;;;;;;;9.07;3.97;;;9.20;99.90;;;;;;4972254;28;20177;-91
2023/03/31 05:03:51;;;;;;;5.77;3.53;;;9.20;99.90;;;;;;4981608;28;20288;-90
2023/03/31 05:06:21;;;;;;;8.00;3.90;;;9.20;99.90;;;;;;4993197;28;20218;-91
2023/03/31 05:08:47;;;;;;;6.10;3.63;;;9.30;99.90;;;;;;4970581;28;20181;-91
2023/03/31 05:11:13;;;;;;;6.63;3.70;;;9.30;99.90;;;;;;4967888;28;20255;-91
2023/03/31 05:13:40;;;;;;;6.73;4.63;;;9.30;99.90;;;;;;4976862;28;20263;-92
2023/03/31 05:16:08;;;;;;;10.33;4.60;;;9.30;99.90;;;;;;4976589;28;20215;-91
2023/03/31 05:18:34;;;;;;;10.53;5.07;;;9.30;99.90;;;;;;4976182;28;20183;-91
2023/03/31 05:21:15;;;;;;;7.43;4.87;;;9.30;99.90;;;;;;4976117;28;20195;-92
2023/03/31 05:23:52;;;;;;;8.97;4.63;;;9.20;99.90;;;;;;4996059;28;20178;-91
2023/03/31 05:26:18;;;;;;;7.40;4.43;;;9.20;99.90;;;;;;4957317;28;20231;-91
2023/03/31 05:32:33;;;;;;;11.30;4.57;;;9.30;99.90;;;;;;4974181;28;20164;-88
2023/03/31 05:34:59;;;;;;;8.07;4.67;;;9.20;99.90;;;;;;4941727;28;20169;-92
2023/03/31 05:37:26;;;;;;;9.50;4.70;;;9.20;99.90;;;;;;4957054;28;20212;-91
2023/03/31 05:39:52;;;;;;;9.40;4.60;;;9.10;99.90;;;;;;4971585;28;20180;-91
2023/03/31 05:42:19;;;;;;;9.33;4.77;;;9.00;99.90;;;;;;4977187;28;20241;-83
2023/03/31 05:44:45;;;;;;;8.00;5.00;;;8.90;99.90;;;;;;4960455;28;20183;-92
2023/03/31 05:47:12;;;;;;;8.33;4.33;;;8.90;99.90;;;;;;4975643;28;20204;-91
2023/03/31 05:49:38;;;;;;;8.60;4.77;;;8.80;99.90;;;;;;4975979;28;20172;-92
2023/03/31 05:52:08;;;;;;;9.20;5.13;;;8.90;99.90;;;;;;4975746;28;20180;-91
2023/03/31 07:18:40;;;;;;;4.13;2.30;;;9.70;99.90;;;;;;4977126;28;20746;-85
2023/03/31 07:21:07;;;;;;;3.80;2.20;;;9.70;99.90;;;;;;4993879;28;20190;-93
2023/03/31 07:23:34;;;;;;;3.73;1.90;;;9.70;99.90;;;;;;4978571;28;20214;-93
2023/03/31 08:04:20;;;;;;;2.13;1.93;;;10.60;99.90;;;;;;4994490;28;20171;-93
2023/03/31 08:06:46;;;;;;;1.60;1.47;;;10.90;99.90;;;;;;4994722;28;20232;-92
2023/03/31 08:09:12;;;;;;;1.40;1.30;;;11.00;99.90;;;;;;5027570;23;20280;-33
2023/03/31 08:11:39;;;;;;;1.40;1.30;;;11.20;99.90;;;;;;5010497;28;20182;-32
2023/03/31 08:14:09;;;;;;;1.97;1.50;;;11.30;99.90;;;;;;5024195;28;20183;-32
2023/03/31 08:16:35;;;;;;;1.90;1.20;;;11.50;99.90;;;;;;4997974;28;20190;-34
2023/03/31 08:19:02;;;;;;;1.23;1.10;;;11.60;99.90;;;;;;5011788;28;20241;-33
2023/03/31 08:21:29;;;;;;;2.57;1.30;;;11.80;99.90;;;;;;4995532;28;20232;-42
2023/03/31 08:23:57;;;;;;;1.20;1.07;;;11.90;99.90;;;;;;4978489;28;20184;-43
2023/03/31 08:26:24;;;;;;;4.87;1.33;;;12.10;99.90;;;;;;4978206;28;20189;-43
2023/03/31 08:28:51;;;;;;;1.23;1.00;;;12.20;99.90;;;;;;4994633;28;20183;-41
2023/03/31 08:31:19;;;;;;;2.97;0.90;;;12.30;99.90;;;;;;4994692;28;20182;-42
2023/03/31 08:33:46;;;;;;;1.13;0.97;;;12.50;99.90;;;;;;4994191;28;20195;-40
2023/03/31 08:36:12;;;;;;;1.77;1.20;;;12.60;99.90;;;;;;4976748;28;20216;-42
2023/03/31 08:38:41;;;;;;;1.77;1.10;;;12.70;99.90;;;;;;4994212;28;20240;-41
2023/03/31 08:41:28;;;;;;;2.17;1.00;;;12.80;99.90;;;;;;5011523;28;20189;-42
2023/03/31 08:43:57;;;;;;;2.70;1.10;;;13.00;99.90;;;;;;5009234;28;20198;-42
2023/03/31 08:46:26;;;;;;;1.80;1.20;;;13.10;99.90;;;;;;4992216;28;20277;-41
2023/03/31 08:48:57;;;;;;;2.20;1.17;;;13.20;99.90;;;;;;5011397;28;20236;-43
2023/03/31 08:51:29;;;;;;;2.47;1.13;;;13.40;99.90;;;;;;4994885;28;20176;-42
2023/03/31 08:54:14;;;;;;;2.73;1.07;;;13.50;99.90;;;;;;4983096;28;20189;-43
2023/03/31 08:56:43;;;;;;;3.53;0.87;;;13.60;99.90;;;;;;4994349;28;20187;-43
2023/03/31 08:59:30;;;;;;;1.10;1.00;;;13.60;99.90;;;;;;5009251;28;20194;-42
2023/03/31 09:02:18;;;;;;;2.70;1.20;;;13.70;99.90;;;;;;5012022;28;20203;-44
2023/03/31 09:04:52;;;;;;;1.13;0.80;;;13.80;99.90;;;;;;5011946;28;20186;-43
2023/03/31 09:07:34;;;;;;;2.20;0.83;;;13.80;99.90;;;;;;4993843;28;20206;-43
2023/03/31 09:10:33;;;;;;;1.50;1.10;;;13.90;99.90;;;;;;5010384;28;20226;-44
2023/03/31 09:13:05;;;;;;;1.53;1.00;;;14.10;99.90;;;;;;5012167;28;20207;-44
2023/03/31 09:15:45;;;;;;;2.53;1.07;;;14.20;99.90;;;;;;5010409;28;20183;-43
2023/03/31 09:18:24;;;;;;;2.47;0.90;;;14.20;99.90;;;;;;5011869;28;20199;-43
2023/03/31 09:20:52;;;;;;;3.30;0.87;;;14.20;99.90;;;;;;4994000;28;20179;-44
2023/03/31 09:23:35;;;;;;;1.33;0.93;;;14.10;99.90;;;;;;4994516;28;20242;-44
2023/03/31 09:26:03;;;;;;;4.03;1.00;;;14.20;99.90;;;;;;4977162;28;20187;-44
2023/03/31 09:28:38;;;;;;;2.47;1.13;;;14.10;99.90;;;;;;5010850;28;20199;-44
2023/03/31 09:31:13;;;;;;;2.73;1.20;;;14.20;99.90;;;;;;5011003;28;20214;-44
2023/03/31 09:33:47;;;;;;;4.60;1.20;;;14.00;99.90;;;;;;4993311;28;20214;-43
2023/03/31 09:36:16;;;;;;;2.07;1.00;;;13.90;99.90;;;;;;4988405;28;20180;-43
2023/03/31 09:38:43;;;;;;;2.97;0.90;;;14.00;99.90;;;;;;4993182;28;20188;-43
2023/03/31 09:41:11;;;;;;;1.97;0.90;;;14.20;99.90;;;;;;5010377;28;20187;-43
2023/03/31 09:43:44;;;;;;;3.37;1.20;;;14.30;99.90;;;;;;4993636;28;20215;-43
2023/03/31 09:46:31;;;;;;;2.93;1.07;;;14.30;99.90;;;;;;4994666;28;20191;-44
2023/03/31 09:49:15;;;;;;;3.67;1.10;;;14.40;99.90;;;;;;4993700;28;20179;-44
2023/03/31 09:51:51;;;;;;;4.13;1.30;;;14.50;99.90;;;;;;4993660;28;20253;-44
2023/03/31 09:54:34;;;;;;;5.07;1.20;;;14.70;99.90;;;;;;5010888;28;20258;-42
2023/03/31 09:57:00;;;;;;;3.20;1.10;;;14.90;99.90;;;;;;5007833;28;20187;-43
2023/03/31 09:59:34;;;;;;;3.40;1.30;;;15.00;99.90;;;;;;4993449;28;20206;-43
2023/03/31 10:02:04;;;;;;;4.57;1.37;;;15.00;99.90;;;;;;5011167;28;20290;-44
2023/03/31 10:04:33;;;;;;;3.87;1.70;;;15.00;99.90;;;;;;4988848;28;20184;-43
2023/03/31 10:07:01;;;;;;;5.23;1.50;;;15.10;99.90;;;;;;4993425;28;20262;-42
2023/03/31 10:09:32;;;;;;;4.77;1.60;;;15.10;99.90;;;;;;5010823;28;20195;-44
2023/03/31 10:12:03;;;;;;;6.07;1.60;;;15.30;99.90;;;;;;5009774;28;20203;-44
2023/03/31 10:14:47;;;;;;;5.50;1.50;;;15.20;99.90;;;;;;4993300;28;20278;-43
2023/03/31 10:17:21;;;;;;;5.70;1.37;;;15.10;99.90;;;;;;4993198;28;20202;-44
2023/03/31 10:20:33;;;;;;;3.90;1.20;;;15.30;99.90;;;;;;4995645;28;20228;-43
2023/03/31 10:23:19;;;;;;;6.07;1.60;;;15.10;99.90;;;;;;5002909;28;20254;-43
2023/03/31 10:25:48;;;;;;;6.63;1.77;;;15.10;99.90;;;;;;5009639;28;20179;-44
2023/03/31 10:28:19;;;;;;;3.43;1.63;;;15.20;99.90;;;;;;4972344;28;20207;-42
2023/03/31 10:30:52;;;;;;;7.23;2.10;;;15.20;99.90;;;;;;4975948;28;20179;-44
2023/03/31 10:33:23;;;;;;;7.97;1.70;;;15.30;99.90;;;;;;4989290;28;20210;-43
2023/03/31 10:35:55;;;;;;;7.13;1.47;;;15.40;99.90;;;;;;4992948;28;20189;-43
2023/03/31 10:38:30;;;;;;;7.07;1.80;;;15.30;99.90;;;;;;4991508;28;20179;-43
2023/03/31 10:40:58;;;;;;;7.57;1.43;;;15.50;99.90;;;;;;4984188;28;20222;-43
2023/03/31 10:43:39;;;;;;;6.80;1.97;;;15.60;99.90;;;;;;4993411;28;20265;-44
2023/03/31 10:46:06;;;;;;;5.13;1.40;;;15.70;99.90;;;;;;4993176;28;20196;-43
2023/03/31 10:48:43;;;;;;;4.93;1.30;;;15.80;99.90;;;;;;5010758;28;20211;-43
2023/03/31 10:51:17;;;;;;;4.33;1.47;;;15.80;99.90;;;;;;4993272;28;20183;-43
2023/03/31 10:53:54;;;;;;;4.23;1.17;;;15.70;99.90;;;;;;5009334;28;20203;-43
2023/03/31 10:57:00;;;;;;;2.07;1.17;;;15.80;99.90;;;;;;5009232;28;20178;-43
2023/03/31 10:59:51;;;;;;;4.70;1.63;;;16.00;99.90;;;;;;4984076;28;20183;-43
2023/03/31 11:02:58;;;;;;;5.30;1.50;;;16.00;99.90;;;;;;4973685;28;20227;-43
2023/03/31 11:06:03;;;;;;;3.13;1.30;;;15.90;99.90;;;;;;4981341;28;20187;-43
2023/03/31 11:08:44;;;;;;;4.43;1.53;;;15.60;99.90;;;;;;4986587;28;20684;-44
2023/03/31 11:11:22;;;;;;;5.47;1.50;;;15.10;99.90;;;;;;5012974;28;20202;-44
2023/03/31 11:14:40;;;;;;;6.97;2.23;;;14.70;99.90;;;;;;5012390;28;20191;-44
2023/03/31 11:17:17;;;;;;;11.67;2.20;;;14.20;99.90;;;;;;4971941;28;20195;-44
2023/03/31 11:20:14;;;;;;;5.20;1.03;;;12.20;99.90;;;;;;4995916;28;20192;-44
2023/03/31 11:22:45;;;;;;;7.93;1.43;;;11.20;99.90;;;;;;4993416;28;20262;-45
2023/03/31 11:25:38;;;;;;;2.53;1.20;;;10.70;99.90;;;;;;4988062;28;20190;-41
2023/03/31 11:28:22;;;;;;;2.73;0.80;;;10.40;99.90;;;;;;5008648;28;20262;-45
2023/03/31 11:31:28;;;;;;;1.23;0.87;;;10.20;99.90;;;;;;4992603;28;20177;-44
2023/03/31 11:34:15;;;;;;;1.20;0.53;;;10.10;99.90;;;;;;5008066;28;20179;-44
2023/03/31 11:37:14;;;;;;;0.67;0.63;;;9.80;99.90;;;;;;4992517;28;20188;-44
2023/03/31 11:39:54;;;;;;;1.97;0.60;;;9.70;99.90;;;;;;4903356;28;20191;-40
2023/03/31 11:42:34;;;;;;;1.23;0.87;;;9.60;99.90;;;;;;4996555;28;20303;-41
2023/03/31 11:45:24;;;;;;;2.43;0.60;;;9.50;99.90;;;;;;4995557;28;20191;-44
2023/03/31 11:47:54;;;;;;;1.30;0.40;;;9.50;99.90;;;;;;4995401;28;20215;-42
2023/03/31 11:50:25;;;;;;;0.67;0.40;;;9.50;99.90;;;;;;5013048;28;20182;-44
2023/03/31 11:53:16;;;;;;;0.47;0.47;;;9.50;99.90;;;;;;4995850;28;20242;-41
2023/03/31 11:55:44;;;;;;;1.10;0.70;;;9.70;99.90;;;;;;4999126;28;20179;-42
2023/03/31 11:58:19;;;;;;;2.03;0.70;;;9.90;99.90;;;;;;5004212;28;20184;-42
2023/03/31 12:01:20;;;;;;;0.60;0.60;;;10.00;99.90;;;;;;4969288;28;20195;-42
2023/03/31 12:04:18;;;;;;;2.43;0.80;;;10.10;99.90;;;;;;4982116;28;20207;-42
2023/03/31 12:06:45;;;;;;;3.07;0.80;;;10.30;99.90;;;;;;4982725;28;20199;-42
2023/03/31 12:09:18;;;;;;;1.57;0.70;;;10.40;99.90;;;;;;5010208;28;20233;-42
2023/03/31 12:12:06;;;;;;;0.63;0.50;;;10.40;99.90;;;;;;5011130;28;20199;-43
2023/03/31 12:14:34;;;;;;;1.40;0.70;;;10.50;99.90;;;;;;5008261;28;20254;-42
2023/03/31 12:17:12;;;;;;;4.27;0.60;;;10.60;99.90;;;;;;4995469;28;20183;-42
2023/03/31 12:20:12;;;;;;;3.03;0.73;;;10.70;99.90;;;;;;5012490;28;20213;-40
2023/03/31 12:22:48;;;;;;;1.63;0.70;;;11.10;99.90;;;;;;5012052;28;20195;-42
2023/03/31 12:25:17;;;;;;;2.50;0.73;;;11.30;99.90;;;;;;4997059;28;20210;-39
2023/03/31 12:27:50;;;;;;;1.73;0.90;;;11.50;99.90;;;;;;4994285;28;20200;-42
2023/03/31 12:30:38;;;;;;;2.00;0.90;;;11.80;99.90;;;;;;4994766;28;20181;-42
2023/03/31 12:33:15;;;;;;;2.93;0.90;;;12.00;99.90;;;;;;5003104;28;20206;-42
2023/03/31 12:36:09;;;;;;;1.47;0.60;;;12.00;99.90;;;;;;4991164;28;20174;-41
2023/03/31 12:39:19;;;;;;;1.83;0.80;;;12.10;99.90;;;;;;5007263;28;20191;-43
2023/03/31 12:42:00;;;;;;;3.50;0.93;;;12.20;99.90;;;;;;4946616;28;20220;-42
2023/03/31 12:44:40;;;;;;;2.73;1.20;;;12.30;99.90;;;;;;5000032;28;20269;-41
2023/03/31 12:47:56;;;;;;;3.00;1.30;;;12.40;99.90;;;;;;4998409;28;20216;-43
2023/03/31 12:50:47;;;;;;;3.97;1.00;;;12.80;99.90;;;;;;4935985;29;20187;-42
2023/03/31 12:53:57;;;;;;;1.90;1.00;;;13.00;99.90;;;;;;4995409;28;20281;-42
2023/03/31 12:56:23;;;;;;;3.67;1.00;;;13.10;99.90;;;;;;5009668;28;20175;-43
2023/03/31 12:58:49;;;;;;;2.97;1.13;;;13.20;99.90;;;;;;4993764;28;20558;-42
2023/03/31 13:01:22;;;;;;;4.50;1.23;;;13.20;99.90;;;;;;4989625;28;20186;-42
2023/03/31 13:03:51;;;;;;;4.63;1.60;;;13.10;99.90;;;;;;4994322;28;20648;-42
2023/03/31 13:06:29;;;;;;;4.63;1.60;;;12.90;99.90;;;;;;5011258;28;20171;-42
2023/03/31 13:09:10;;;;;;;4.60;1.53;;;12.80;99.90;;;;;;4993265;28;20179;-41
2023/03/31 13:11:39;;;;;;;3.33;1.27;;;12.80;99.90;;;;;;4989397;28;20217;-40
2023/03/31 13:14:22;;;;;;;3.70;1.20;;;12.80;99.90;;;;;;4990957;28;20186;-42
2023/03/31 13:16:50;;;;;;;3.50;1.17;;;12.80;99.90;;;;;;5010359;28;20186;-42
2023/03/31 13:19:36;;;;;;;4.60;1.57;;;12.70;99.90;;;;;;4992121;28;20214;-42
2023/03/31 13:22:04;;;;;;;4.13;1.30;;;12.70;99.90;;;;;;5011325;28;20196;-41
2023/03/31 13:24:32;;;;;;;6.80;1.23;;;12.60;99.90;;;;;;4973640;28;20203;-42
2023/03/31 13:27:17;;;;;;;3.93;1.50;;;12.60;99.90;;;;;;5007655;28;20300;-41
2023/03/31 13:29:44;;;;;;;6.27;1.20;;;12.60;99.90;;;;;;4974420;28;20233;-42
2023/03/31 13:32:25;;;;;;;4.93;1.57;;;12.70;99.90;;;;;;4991461;28;20424;-43
2023/03/31 13:35:18;;;;;;;4.73;1.20;;;12.70;99.90;;;;;;4989854;28;20202;-42
2023/03/31 13:38:21;;;;;;;5.40;1.13;;;12.50;99.90;;;;;;5002312;28;20175;-44
2023/03/31 13:41:02;;;;;;;3.50;1.30;;;12.20;99.90;;;;;;4982952;28;20183;-43
2023/03/31 13:43:57;;;;;;;4.63;1.60;;;12.10;99.90;;;;;;5002864;28;20202;-41
2023/03/31 13:46:55;;;;;;;7.87;1.57;;;11.90;99.90;;;;;;4976833;28;20221;-44
2023/03/31 13:49:24;;;;;;;4.50;1.10;;;11.70;99.90;;;;;;4969304;28;20263;-45
2023/03/31 13:51:56;;;;;;;4.73;1.20;;;11.40;99.90;;;;;;4976674;28;20201;-44
2023/03/31 13:54:37;;;;;;;1.23;0.70;;;11.30;99.90;;;;;;4993043;28;20168;-43
2023/03/31 13:57:06;;;;;;;1.90;0.80;;;11.10;99.90;;;;;;4992952;28;20175;-44
2023/03/31 13:59:31;;;;;;;2.30;0.70;;;10.90;99.90;;;;;;4993290;28;20319;-45
2023/03/31 14:02:03;;;;;;;2.23;0.70;;;11.10;99.90;;;;;;4977310;28;20300;-44
2023/03/31 14:04:57;;;;;;;1.30;0.70;;;11.40;99.90;;;;;;4993405;28;20736;-43
2023/03/31 14:07:42;;;;;;;1.60;0.70;;;11.40;99.90;;;;;;4993269;28;20262;-42
2023/03/31 14:10:34;;;;;;;2.00;1.37;;;11.60;99.90;;;;;;5007675;28;20695;-42
2023/03/31 14:13:10;;;;;;;2.80;1.07;;;11.40;99.90;;;;;;4976823;28;20208;-44
2023/03/31 14:15:44;;;;;;;3.83;1.13;;;11.40;99.90;;;;;;5021558;28;20182;-44
2023/03/31 14:18:15;;;;;;;4.97;1.20;;;11.30;99.90;;;;;;5030614;28;20204;-44
2023/03/31 14:21:16;;;;;;;4.10;1.50;;;11.10;99.90;;;;;;5013115;28;20199;-42
2023/03/31 14:23:57;;;;;;;2.87;1.20;;;11.10;99.90;;;;;;5013473;28;20283;-42
2023/03/31 14:26:47;;;;;;;3.27;1.40;;;11.10;99.90;;;;;;5030801;28;20232;-40
2023/03/31 14:29:28;;;;;;;2.83;1.60;;;11.10;99.90;;;;;;5000706;28;20187;-41
2023/03/31 14:32:10;;;;;;;2.03;1.10;;;11.20;99.90;;;;;;5009988;28;20209;-43
2023/03/31 14:34:48;;;;;;;4.37;1.10;;;11.20;99.90;;;;;;4993248;28;20274;-44
2023/03/31 14:37:19;;;;;;;2.37;0.90;;;11.20;99.90;;;;;;5021047;28;20278;-42
2023/03/31 14:39:55;;;;;;;1.70;0.77;;;11.20;99.90;;;;;;5009403;28;20189;-44
2023/03/31 14:42:41;;;;;;;1.63;0.70;;;11.10;99.90;;;;;;5007232;28;20218;-41
2023/03/31 14:45:30;;;;;;;0.90;0.50;;;11.20;99.90;;;;;;4993714;28;20226;-41
2023/03/31 14:48:12;;;;;;;0.80;0.63;;;11.30;99.90;;;;;;4994867;28;20217;-43
2023/03/31 14:50:43;;;;;;;1.20;0.60;;;11.40;99.90;;;;;;4993986;28;20177;-41
2023/03/31 14:53:16;;;;;;;1.80;1.00;;;11.40;99.90;;;;;;4995368;28;20669;-42
2023/03/31 14:55:45;;;;;;;1.27;0.87;;;11.50;99.90;;;;;;5011485;28;20203;-42
2023/03/31 14:58:15;;;;;;;1.67;1.00;;;11.50;99.90;;;;;;4996776;28;20188;-44
2023/03/31 15:00:41;;;;;;;2.37;0.80;;;11.60;99.90;;;;;;5013453;28;20208;-43
2023/03/31 15:03:12;;;;;;;1.03;0.70;;;11.70;99.90;;;;;;4996939;28;20234;-43
2023/03/31 15:05:40;;;;;;;1.17;0.90;;;12.00;99.90;;;;;;4996901;28;20300;-42
2023/03/31 15:08:28;;;;;;;2.77;0.87;;;12.20;99.90;;;;;;4996726;28;20207;-40
2023/03/31 15:10:57;;;;;;;1.63;0.70;;;12.30;99.90;;;;;;4990310;28;20191;-42
2023/03/31 15:13:42;;;;;;;3.10;0.83;;;12.30;99.90;;;;;;4994724;28;20202;-43
2023/03/31 15:16:29;;;;;;;2.03;0.87;;;12.30;99.90;;;;;;4994698;28;20180;-39
2023/03/31 15:18:56;;;;;;;3.37;0.93;;;12.30;99.90;;;;;;4976580;28;20182;-43
2023/03/31 15:21:30;;;;;;;1.33;0.90;;;12.20;99.90;;;;;;4999724;28;20258;-42
2023/03/31 15:23:57;;;;;;;2.50;1.10;;;12.20;99.90;;;;;;4982545;28;20175;-42
2023/03/31 15:26:33;;;;;;;2.70;1.00;;;12.10;99.90;;;;;;4993929;28;20174;-42
2023/03/31 15:29:12;;;;;;;2.80;1.23;;;12.00;99.90;;;;;;4996277;28;20232;-43
2023/03/31 15:31:39;;;;;;;5.17;2.93;;;11.90;99.90;;;;;;5014390;28;20650;-42
2023/03/31 15:34:26;;;;;;;7.90;3.70;;;11.80;99.90;;;;;;4996743;28;20188;-42
2023/03/31 15:36:56;;;;;;;4.23;1.60;;;11.80;99.90;;;;;;4996988;28;20622;-41
2023/03/31 15:39:25;;;;;;;3.30;1.17;;;11.70;99.90;;;;;;4995116;28;20272;-42
2023/03/31 15:41:52;;;;;;;1.17;0.90;;;11.70;99.90;;;;;;4996582;28;20282;-41
2023/03/31 15:44:53;;;;;;;2.87;0.90;;;11.70;99.90;;;;;;4996896;28;20614;-42
2023/03/31 15:47:28;;;;;;;3.43;1.20;;;11.70;99.90;;;;;;5003520;28;20208;-44
2023/03/31 15:50:01;;;;;;;13.77;1.77;;;11.70;99.90;;;;;;5009321;28;20270;-43
2023/03/31 15:52:34;;;;;;;5.20;1.07;;;11.70;99.90;;;;;;5014043;28;20240;-44
2023/03/31 15:55:01;;;;;;;2.07;1.00;;;11.70;99.90;;;;;;4995648;28;20175;-43
2023/03/31 15:57:34;;;;;;;2.83;0.93;;;11.70;99.90;;;;;;4996744;28;20294;-44
2023/03/31 16:00:03;;;;;;;6.07;1.20;;;11.70;99.90;;;;;;4996980;28;20190;-44
2023/03/31 16:02:45;;;;;;;6.03;2.83;;;11.70;99.90;;;;;;4995650;28;20209;-44
2023/03/31 16:05:45;;;;;;;48.53;24.90;;;11.70;99.90;;;;;;4979142;28;20193;-42
2023/03/31 16:08:16;;;;;;;295.03;171.00;;;11.60;99.90;;;;;;4996016;28;20224;-43
2023/03/31 16:10:45;;;;;;;16.47;10.17;;;11.60;99.90;;;;;;4996757;28;20197;-44
2023/03/31 16:13:21;;;;;;;4.23;2.03;;;11.60;99.90;;;;;;5014011;28;20201;-43
2023/03/31 16:15:50;;;;;;;3.30;1.73;;;11.50;99.90;;;;;;5013883;28;20185;-43
2023/03/31 16:18:37;;;;;;;4.73;2.70;;;11.50;99.90;;;;;;5013855;28;20174;-43
2023/03/31 16:21:06;;;;;;;5.20;3.00;;;11.50;99.90;;;;;;4996677;28;20262;-44
2023/03/31 16:23:37;;;;;;;11.10;10.00;;;11.50;99.90;;;;;;4996167;28;20202;-42
2023/03/31 16:26:05;;;;;;;4.63;2.93;;;11.50;99.90;;;;;;4995784;28;20182;-41
2023/03/31 16:28:34;;;;;;;17.00;11.43;;;11.40;99.90;;;;;;4978701;28;20216;-42
2023/03/31 16:31:01;;;;;;;18.60;12.53;;;11.40;99.90;;;;;;5011150;28;20209;-42
2023/03/31 16:33:30;;;;;;;49.23;32.97;;;11.30;99.90;;;;;;4978792;28;20205;-42
2023/03/31 16:35:57;;;;;;;49.00;35.63;;;11.00;99.90;;;;;;5012682;28;20205;-42
2023/03/31 16:38:26;;;;;;;94.17;61.97;;;10.70;99.90;;;;;;4992738;28;20183;-44
2023/03/31 16:40:55;;;;;;;33.33;21.33;;;10.50;99.90;;;;;;4994774;28;20175;-42
2023/03/31 16:43:23;;;;;;;25.57;16.93;;;10.40;99.90;;;;;;5010897;28;20207;-44
2023/03/31 16:45:55;;;;;;;29.47;19.47;;;10.30;99.90;;;;;;4999784;28;20197;-44
2023/03/31 16:48:23;;;;;;;33.33;19.73;;;10.30;99.90;;;;;;4979362;28;20260;-43
2023/03/31 16:50:53;;;;;;;6.70;4.80;;;10.20;99.90;;;;;;4974808;28;20180;-43
2023/03/31 16:53:26;;;;;;;24.43;15.43;;;10.00;99.90;;;;;;5007132;28;20274;-44
2023/03/31 16:55:53;;;;;;;45.77;34.53;;;10.00;99.90;;;;;;4993777;28;20171;-44
2023/03/31 16:58:20;;;;;;;87.97;55.87;;;10.00;99.90;;;;;;5009403;28;20213;-44
2023/03/31 17:00:46;;;;;;;101.73;63.97;;;10.00;99.90;;;;;;5003684;28;20184;-44
2023/03/31 17:03:13;;;;;;;13.07;10.63;;;10.00;99.90;;;;;;5013040;28;20206;-40
2023/03/31 17:05:42;;;;;;;4.83;2.70;;;10.00;99.90;;;;;;5012357;28;20273;-40
2023/03/31 17:08:08;;;;;;;6.23;2.10;;;10.00;99.90;;;;;;5012962;28;20341;-41
2023/03/31 17:10:35;;;;;;;6.30;1.93;;;10.00;99.90;;;;;;4989814;28;20191;-44
2023/03/31 17:13:01;;;;;;;2.53;1.60;;;10.00;99.90;;;;;;4975823;28;20204;-44
2023/03/31 17:15:28;;;;;;;4.13;2.20;;;10.00;99.90;;;;;;4966829;28;20242;-44
2023/03/31 17:17:55;;;;;;;5.57;2.20;;;10.00;99.90;;;;;;4992147;28;20195;-42
2023/03/31 17:20:22;;;;;;;6.17;2.10;;;10.00;99.90;;;;;;5013021;28;20194;-40
2023/03/31 17:22:47;;;;;;;6.47;2.27;;;10.10;99.90;;;;;;5011540;28;20196;-43
2023/03/31 17:25:13;;;;;;;7.47;2.57;;;10.10;99.90;;;;;;5012615;28;20179;-43
2023/03/31 17:27:39;;;;;;;6.80;3.23;;;10.00;99.90;;;;;;4994560;28;20210;-44
2023/03/31 17:30:06;;;;;;;4.60;2.13;;;10.00;99.90;;;;;;5012745;28;20172;-41
2023/03/31 17:32:33;;;;;;;5.93;3.57;;;10.00;99.90;;;;;;5010792;28;20195;-43
2023/03/31 17:34:58;;;;;;;4.37;2.30;;;10.00;99.90;;;;;;5009315;28;20183;-44
2023/03/31 17:37:24;;;;;;;2.37;1.67;;;10.00;99.90;;;;;;5011265;28;20184;-42
2023/03/31 17:39:50;;;;;;;4.13;2.00;;;9.90;99.90;;;;;;5009731;28;20183;-44
2023/03/31 17:42:19;;;;;;;5.07;1.80;;;9.90;99.90;;;;;;4993022;28;20253;-42
2023/03/31 17:44:46;;;;;;;6.17;2.27;;;9.90;99.90;;;;;;5010165;28;20261;-40
2023/03/31 17:47:14;;;;;;;3.43;2.10;;;9.80;99.90;;;;;;5007320;28;20203;-43
2023/03/31 17:49:40;;;;;;;4.80;2.37;;;9.80;99.90;;;;;;4978140;28;20238;-41